메인 페이지
METAR-TAF:

METAR-TAF

공항 :

Scottsbluff, 네브래스카, 미국

위도: 41-52-01N, 경도: 103-35-09W, 고도: 1208m

현재 날씨관측

예보는 45분 전, 00:53시(UTC)에 발표되었습니다.
북북서4kt
온도 -1°C
습도 100%
기압 1014 hPa
시정: 12.9km
고도 11000ft 상공 구름 보통

METAR: KBFF 170053Z AUTO 33004KT 8SM SCT110 M01/M01 A2994 RMK AO2 SLP166 T10111011

시각: 18:38 (01:38 UTC)

예보

예보는 2 시간 8분 전, 23:30시(UTC)에 발표되었습니다.
예보 대상 시간: 17일 00시부터 17일 24시까지 (UTC)
서북서11kt
시정: 10km
고도 7000ft 상공 흐림
17일 0800시부터 (UTC)
북서11kt, 순간 최대 풍속 21kt
시정: 10km
고도 21000ft 상공 구름 보통
17일 1600시부터 (UTC)
서북서5kt
시정: 10km
고도 23000ft 상공 구름 조금

TAF: KBFF 162330Z 1700/1724 29011KT P6SM OVC070 FM170800 31011G21KT P6SM SCT210 WS020/29040KT FM171600 29005KT P6SM FEW230

4,000개 이상의 공항 관측 자료 및 예보 (METAR 및 TAF 보고).

지도상에서 검색 가능한 기상관측소가 노란 점과 빨간 점으로 표시되어 있습니다.

기상관측소 명을 보려면 표시 위로 마우스를 이동하세요.

날씨 관측과 예보를 보려면 클릭하세요.

지도 변경 : 확대하려면 엑스 표시가 있는 녹색 버튼, 축소하려면 빼기 표시가 있는 녹색 버튼, 다음 페이지의 지도를 보려면 녹색 화살표를 클릭하세요.


METAR-TAF: